Portada
METAR-TAF:

METAR-TAF

Aeropuertos :

Resolute, Nunavut, Canadá

Aeropuerto de Resolute Bay

latitud: 74-43N, longitud: 094-59W, altitud: 67 m

Observación

El informe se hizo hace 56 minutos, a las 07:00 UTC
Viento 3 kt del sur
Temperatura 5°C
Humedad 70%
Presión 1013 hPa
Visibilidad: 24.1 km
Escasas nubes a una altura de 15000 ft
Cielo cubierto a una altura de 25000 ft

METAR: CYRB 200700Z 17003KT 15SM FEW150 OVC250 05/M00 A2991 RMK AC1CS8 AC TR SLP135

Hora: 02:56 (07:56 UTC)

Pronóstico

El informe se hizo hace 2 horas y 18 minutos, a las 05:38 UTC
Pronóstico válido del 20 a las 06 UTC al 21 a las 06 UTC
Viento 3 kt con dirección variable
Visibilidad: 10 km
Cielo nuboso a una altura de 25000 ft
A partir de las 20 a las 1400 UTC
Viento 8 kt del sur-sureste
Visibilidad: 10 km
Escasas nubes a una altura de 24000 ft

TAF: CYRB 200538Z 2006/2106 VRB03KT P6SM BKN250 FM201400 15008KT P6SM FEW240 RMK NXT FCST BY 201200Z

Observaciones y pronósticos meteorológicos de más de 4000 aeropuertos (mensajes METAR y TAF).

Los puntos amarillos y rojos representan las estaciones disponibles.

Ponga el ratón en el punto deseado para ver el nombre de la estación.

Haga clic para ver las observaciones y los pronósticos meteorológicos.

Para cambiar el mapa : haga clic en los botones verdes con una cruz de color negro para hacer un zoom, en el botón verde con un guión para alejar o en las flechas verdes para mapas adyacentes.


METAR-TAF: